New Orleans, LA (70170)

9:44 PM CDT on September 02, 2015 (GMT -0500)
Warehouse District | | Change Station
CLOSE
Current Station
Personal Weather Station
Location: New Orleans, LA
Elevation: 28 ft
Nearby Weather Stations

Elev 28 ft 29.94 °N, 90.07 °W | Updated 28 seconds ago

Mostly Cloudy
Mostly Cloudy
79.3 °F
Feels Like 83 °F
N
1.1
Wind Variable Wind from North
Gusts 2.5 mph

Today
High -- | Low -- °F
--% Chance of Precip.
Yesterday
High -- | Low -- °F
Precip. -- in
6:37 AM 7:21 PM
Waning Gibbous, 75% visible
Pressure 29.98 in
Visibility 10.0 miles
Clouds Clear
Heat Index 83 °F
Dew Point 73 °F
Humidity 80%
Rainfall 0.18 in
Snow Depth Not available.
UV 0.0 out of 12
Pollen 7.90 out of 12
Air Quality Not available.
Flu Activity Not available.
METAR KNEW 030153Z AUTO 00000KT 10SM CLR 27/22 A3000 RMK AO2 SLP152 T02670217 TSNO
Pressure 29.98 in
Visibility 10.0 miles
Clouds Clear
Heat Index 83 °F
Dew Point 73 °F
Humidity 80%
Rainfall 0.18 in
Snow Depth Not available.
UV 0.0 out of 12
Pollen 7.90 out of 12
Air Quality Not available.
Flu Activity Not available.
METAR KNEW 030153Z AUTO 00000KT 10SM CLR 27/22 A3000 RMK AO2 SLP152 T02670217 TSNO

10-Day Weather Forecast

×

Almanac

Astronomy

Sep. 02, 2015 Rise Set
Actual Time
Civil Twilight
Nautical Twilight
Astronomical Twilight
Moon
Length of Visible Light
Length of Day
Tomorrow will be .
, % of the Moon is Illuminated

Today's Extremes

State Highs State Lows

Community

WunderPhotos

Upload Photos

1,851,879 photos uploaded!

WunderBlogs® & News

Nearby

Air Quality

  Air Quality AQ Index Pollutant
Not available.

Snow Depth

Station Depth Elevation

Earthquake Activity

City Distance Mag. Time & Date
Minimum magnitude displayed is 2.5.

Coastal Water Temperatures

Place Temperature

Stations

Nearby Weather Stations

Station Location Temp. Windchill Dew Point Humidity Wind Precip. Elev Updated Type